LFBZLESO

Guest
Details From LFBZ - Biarritz-Anglet-Bayonne
To LESO - San_Sebastian
Flight Number -
Tags generated
Created
Modified
Stats Distance 14 nm / 25 km
Max Altitude 200 ft / 61 m
Waypoints 3
Social Downloads 1
Likes 0
Share VATSIM

Download

Looking for another format? Having issues loading an existing format? Contact us
Advertisement - Login to hide

Notes

Basic altitude profile: - Ascent Rate: 2500ft/min - Ascent Speed: 250kts - Cruise Altitude: 35000ft - Cruise Speed: 420kts - Descent Rate: 1500ft/min - Descent Speed: 250kts

Route

LFBZ LUSEM LESO

ID Type Via Altitude Latitude Longitude Leg Dist Tot Dist Heading (true) Name
O LFBZ APT - 0 ft / 0 m 43.46843˚ -1.52332˚ - 0 nm - Biarritz-Anglet-Bayonne
LUSEM FIX - 200 ft / 61 m 43.37472˚ -1.78056˚ 12 nm 12 nm 243° / 243° -
O LESO APT - 0 ft / 0 m 43.35652˚ -1.79061˚ 1 nm 13 nm 202° / 202° San_Sebastian

Altitude Profile

Advertisement - Login to hide

LFBZ

Details ICAO LFBZ (BIQ)
Name Biarritz-Anglet-Bayonne
Region France
Timezone Europe/Paris (UTC+2.0)
Stats Elevation 245 ft / 75 m (AMSL)
Location 43.468427° -1.523322°
Runways 1
Magnetic Variation 0.172° W

METAR

LFBZ 221030Z AUTO 30008KT 270V330 CAVOK 19/13 Q1016 NOSIG

Decode

TAF

TAF LFBZ 220500Z 2206/2306 29008KT 9999 SCT040 PROB30 TEMPO 2206/2208 BKN005 PROB30 TEMPO 2214/2306 BKN010 PROB30 2301/2306 3000 BR OVC004

Decode

Departure Runways

ID Width Length Bearing (true) Bearing (mag) Surface Threshold Offset Overrun Length
09 148 ft / 45 m 7,388 ft / 2,252 m 89.12° 89.29° Asphalt 673 ft / 205 m 0 ft / 0 m
27 148 ft / 45 m 7,388 ft / 2,252 m 269.14° 269.31° Asphalt 0 ft / 0 m 0 ft / 0 m

LESO

Details ICAO LESO (EAS)
Name San_Sebastian
Region Spain
Timezone Europe/Madrid (UTC+2.0)
Stats Elevation 14 ft / 4 m (AMSL)
Location 43.356520° -1.790611°
Runways 1
Magnetic Variation 0.244° W

METAR

LESO 221030Z 33007KT 280V010 CAVOK 20/10 Q1015

Decode

TAF

TAF LESO 220500Z 2206/2306 VRB05KT CAVOK TX22/2214Z TN13/2206Z

Decode

Destination Runways

ID Width Length Bearing (true) Bearing (mag) Surface Threshold Offset Overrun Length
04 148 ft / 45 m 5,762 ft / 1,756 m 38.68° 38.92° Asphalt 0 ft / 0 m 0 ft / 0 m
22 148 ft / 45 m 5,762 ft / 1,756 m 218.69° 218.93° Asphalt 0 ft / 0 m 0 ft / 0 m

Popular Alternatives